sensor_id;sensor_type;location;lat;lon;timestamp;P1;durP1;ratioP1;P2;durP2;ratioP2
69161;SDS011;56269;51.738;21.652;2023-10-08T00:02:26;4.80;;;1.23;;
69161;SDS011;56269;51.738;21.652;2023-10-08T00:04:53;2.75;;;0.90;;
69161;SDS011;56269;51.738;21.652;2023-10-08T00:07:23;3.10;;;0.93;;
69161;SDS011;56269;51.738;21.652;2023-10-08T00:09:50;4.47;;;1.23;;
69161;SDS011;56269;51.738;21.652;2023-10-08T00:12:17;2.75;;;1.00;;
69161;SDS011;56269;51.738;21.652;2023-10-08T00:14:43;5.13;;;1.00;;
69161;SDS011;56269;51.738;21.652;2023-10-08T00:17:10;2.57;;;1.03;;
69161;SDS011;56269;51.738;21.652;2023-10-08T00:19:37;3.20;;;0.90;;
69161;SDS011;56269;51.738;21.652;2023-10-08T00:22:05;5.13;;;1.27;;
69161;SDS011;56269;51.738;21.652;2023-10-08T00:24:33;2.60;;;0.93;;
69161;SDS011;56269;51.738;21.652;2023-10-08T00:26:59;3.58;;;0.90;;
69161;SDS011;56269;51.738;21.652;2023-10-08T00:29:32;3.28;;;0.95;;
69161;SDS011;56269;51.738;21.652;2023-10-08T00:31:58;5.57;;;1.20;;
69161;SDS011;56269;51.738;21.652;2023-10-08T00:34:24;2.60;;;0.90;;
69161;SDS011;56269;51.738;21.652;2023-10-08T00:36:52;3.85;;;1.10;;
69161;SDS011;56269;51.738;21.652;2023-10-08T00:39:19;2.22;;;0.80;;
69161;SDS011;56269;51.738;21.652;2023-10-08T00:41:48;2.45;;;0.80;;
69161;SDS011;56269;51.738;21.652;2023-10-08T00:44:16;3.70;;;1.10;;
69161;SDS011;56269;51.738;21.652;2023-10-08T00:46:48;5.30;;;1.38;;
69161;SDS011;56269;51.738;21.652;2023-10-08T00:49:17;2.13;;;0.93;;
69161;SDS011;56269;51.738;21.652;2023-10-08T00:51:47;4.10;;;1.08;;
69161;SDS011;56269;51.738;21.652;2023-10-08T00:54:29;3.75;;;1.17;;
69161;SDS011;56269;51.738;21.652;2023-10-08T00:56:59;5.00;;;1.30;;
69161;SDS011;56269;51.738;21.652;2023-10-08T00:59:33;1.80;;;0.60;;
69161;SDS011;56269;51.738;21.652;2023-10-08T01:02:10;2.95;;;0.90;;
69161;SDS011;56269;51.738;21.652;2023-10-08T01:04:40;1.77;;;0.65;;
69161;SDS011;56269;51.738;21.652;2023-10-08T01:07:10;2.60;;;1.02;;
69161;SDS011;56269;51.738;21.652;2023-10-08T01:09:42;3.27;;;0.93;;
69161;SDS011;56269;51.738;21.652;2023-10-08T01:12:17;3.65;;;1.17;;
69161;SDS011;56269;51.738;21.652;2023-10-08T01:15:00;2.72;;;0.68;;
69161;SDS011;56269;51.738;21.652;2023-10-08T01:17:41;3.00;;;0.93;;
69161;SDS011;56269;51.738;21.652;2023-10-08T01:20:23;3.28;;;1.17;;
69161;SDS011;56269;51.738;21.652;2023-10-08T01:23:14;3.27;;;0.97;;
69161;SDS011;56269;51.738;21.652;2023-10-08T01:25:47;2.50;;;0.90;;
69161;SDS011;56269;51.738;21.652;2023-10-08T01:28:18;2.97;;;0.98;;
69161;SDS011;56269;51.738;21.652;2023-10-08T01:30:57;5.18;;;1.42;;
69161;SDS011;56269;51.738;21.652;2023-10-08T01:33:29;3.00;;;1.08;;
69161;SDS011;56269;51.738;21.652;2023-10-08T01:35:57;3.23;;;0.80;;
69161;SDS011;56269;51.738;21.652;2023-10-08T01:38:28;2.28;;;1.00;;
69161;SDS011;56269;51.738;21.652;2023-10-08T01:40:55;3.00;;;0.93;;
69161;SDS011;56269;51.738;21.652;2023-10-08T01:43:22;2.97;;;1.08;;
69161;SDS011;56269;51.738;21.652;2023-10-08T01:45:48;4.13;;;1.50;;
69161;SDS011;56269;51.738;21.652;2023-10-08T01:48:17;4.00;;;1.37;;
69161;SDS011;56269;51.738;21.652;2023-10-08T01:50:57;4.68;;;1.38;;
69161;SDS011;56269;51.738;21.652;2023-10-08T01:53:35;6.45;;;1.83;;
69161;SDS011;56269;51.738;21.652;2023-10-08T01:56:02;6.40;;;1.65;;
69161;SDS011;56269;51.738;21.652;2023-10-08T01:58:29;5.75;;;1.55;;
69161;SDS011;56269;51.738;21.652;2023-10-08T02:00:56;7.37;;;1.57;;
69161;SDS011;56269;51.738;21.652;2023-10-08T02:03:26;4.53;;;1.52;;
69161;SDS011;56269;51.738;21.652;2023-10-08T02:05:56;5.53;;;1.40;;
69161;SDS011;56269;51.738;21.652;2023-10-08T02:08:25;3.17;;;0.85;;
69161;SDS011;56269;51.738;21.652;2023-10-08T02:10:52;4.53;;;1.67;;
69161;SDS011;56269;51.738;21.652;2023-10-08T02:13:18;4.17;;;1.50;;
69161;SDS011;56269;51.738;21.652;2023-10-08T02:15:45;4.35;;;1.42;;
69161;SDS011;56269;51.738;21.652;2023-10-08T02:18:17;4.07;;;1.92;;
69161;SDS011;56269;51.738;21.652;2023-10-08T02:20:44;4.68;;;1.52;;
69161;SDS011;56269;51.738;21.652;2023-10-08T02:23:11;5.22;;;1.70;;
69161;SDS011;56269;51.738;21.652;2023-10-08T02:25:38;4.73;;;1.60;;
69161;SDS011;56269;51.738;21.652;2023-10-08T02:28:08;4.07;;;1.40;;
69161;SDS011;56269;51.738;21.652;2023-10-08T02:30:35;5.38;;;1.40;;
69161;SDS011;56269;51.738;21.652;2023-10-08T02:33:06;3.45;;;1.25;;
69161;SDS011;56269;51.738;21.652;2023-10-08T02:35:45;4.30;;;1.35;;
69161;SDS011;56269;51.738;21.652;2023-10-08T02:38:14;4.33;;;1.17;;
69161;SDS011;56269;51.738;21.652;2023-10-08T02:40:43;3.65;;;1.25;;
69161;SDS011;56269;51.738;21.652;2023-10-08T02:43:13;4.25;;;1.50;;
69161;SDS011;56269;51.738;21.652;2023-10-08T02:45:41;4.88;;;1.40;;
69161;SDS011;56269;51.738;21.652;2023-10-08T02:48:12;5.90;;;1.50;;
69161;SDS011;56269;51.738;21.652;2023-10-08T02:50:39;4.53;;;1.03;;
69161;SDS011;56269;51.738;21.652;2023-10-08T02:53:11;3.60;;;1.08;;
69161;SDS011;56269;51.738;21.652;2023-10-08T02:55:38;3.55;;;1.30;;
69161;SDS011;56269;51.738;21.652;2023-10-08T02:58:14;5.30;;;1.50;;
69161;SDS011;56269;51.738;21.652;2023-10-08T03:00:45;4.13;;;1.35;;
69161;SDS011;56269;51.738;21.652;2023-10-08T03:03:13;3.40;;;1.13;;
69161;SDS011;56269;51.738;21.652;2023-10-08T03:05:45;5.55;;;1.40;;
69161;SDS011;56269;51.738;21.652;2023-10-08T03:08:13;3.85;;;1.17;;
69161;SDS011;56269;51.738;21.652;2023-10-08T03:10:45;4.78;;;1.35;;
69161;SDS011;56269;51.738;21.652;2023-10-08T03:13:16;4.57;;;1.25;;
69161;SDS011;56269;51.738;21.652;2023-10-08T03:15:43;3.27;;;1.03;;
69161;SDS011;56269;51.738;21.652;2023-10-08T03:18:27;5.55;;;1.40;;
69161;SDS011;56269;51.738;21.652;2023-10-08T03:21:06;3.88;;;1.48;;
69161;SDS011;56269;51.738;21.652;2023-10-08T03:24:08;3.70;;;1.23;;
69161;SDS011;56269;51.738;21.652;2023-10-08T03:26:56;4.03;;;1.38;;
69161;SDS011;56269;51.738;21.652;2023-10-08T03:29:33;4.40;;;1.43;;
69161;SDS011;56269;51.738;21.652;2023-10-08T03:32:10;2.92;;;1.00;;
69161;SDS011;56269;51.738;21.652;2023-10-08T03:34:44;5.13;;;1.48;;
69161;SDS011;56269;51.738;21.652;2023-10-08T03:37:15;2.55;;;1.08;;
69161;SDS011;56269;51.738;21.652;2023-10-08T03:39:46;2.55;;;1.13;;
69161;SDS011;56269;51.738;21.652;2023-10-08T03:42:32;3.00;;;1.13;;
69161;SDS011;56269;51.738;21.652;2023-10-08T03:45:05;4.03;;;1.30;;
69161;SDS011;56269;51.738;21.652;2023-10-08T03:47:37;4.03;;;1.42;;
69161;SDS011;56269;51.738;21.652;2023-10-08T03:50:07;6.53;;;1.30;;
69161;SDS011;56269;51.738;21.652;2023-10-08T03:52:36;5.28;;;1.52;;
69161;SDS011;56269;51.738;21.652;2023-10-08T03:55:08;5.30;;;1.73;;
69161;SDS011;56269;51.738;21.652;2023-10-08T03:57:52;8.32;;;1.85;;
69161;SDS011;56269;51.738;21.652;2023-10-08T04:00:29;3.80;;;1.40;;
69161;SDS011;56269;51.738;21.652;2023-10-08T04:02:57;6.07;;;1.75;;
69161;SDS011;56269;51.738;21.652;2023-10-08T04:05:34;6.28;;;1.52;;
69161;SDS011;56269;51.738;21.652;2023-10-08T04:08:25;11.33;;;1.83;;
69161;SDS011;56269;51.738;21.652;2023-10-08T04:11:20;4.47;;;1.42;;
69161;SDS011;56269;51.738;21.652;2023-10-08T04:14:02;5.57;;;2.10;;
69161;SDS011;56269;51.738;21.652;2023-10-08T04:16:28;4.47;;;1.63;;
69161;SDS011;56269;51.738;21.652;2023-10-08T04:18:56;5.22;;;2.03;;
69161;SDS011;56269;51.738;21.652;2023-10-08T04:21:22;4.60;;;1.60;;
69161;SDS011;56269;51.738;21.652;2023-10-08T04:23:53;4.07;;;1.70;;
69161;SDS011;56269;51.738;21.652;2023-10-08T04:26:22;4.70;;;1.60;;
69161;SDS011;56269;51.738;21.652;2023-10-08T04:28:50;4.50;;;1.00;;
69161;SDS011;56269;51.738;21.652;2023-10-08T04:31:20;4.43;;;1.65;;
69161;SDS011;56269;51.738;21.652;2023-10-08T04:33:50;5.03;;;1.90;;
69161;SDS011;56269;51.738;21.652;2023-10-08T04:36:17;3.43;;;1.47;;
69161;SDS011;56269;51.738;21.652;2023-10-08T04:38:45;3.30;;;1.27;;
69161;SDS011;56269;51.738;21.652;2023-10-08T04:41:20;4.22;;;1.45;;
69161;SDS011;56269;51.738;21.652;2023-10-08T04:43:53;5.78;;;1.58;;
69161;SDS011;56269;51.738;21.652;2023-10-08T04:46:21;5.43;;;1.52;;
69161;SDS011;56269;51.738;21.652;2023-10-08T04:49:08;5.57;;;1.97;;
69161;SDS011;56269;51.738;21.652;2023-10-08T04:51:43;4.30;;;1.67;;
69161;SDS011;56269;51.738;21.652;2023-10-08T04:54:12;5.22;;;1.77;;
69161;SDS011;56269;51.738;21.652;2023-10-08T04:56:42;4.28;;;1.45;;
69161;SDS011;56269;51.738;21.652;2023-10-08T04:59:09;5.40;;;1.70;;
69161;SDS011;56269;51.738;21.652;2023-10-08T05:01:45;4.70;;;1.53;;
69161;SDS011;56269;51.738;21.652;2023-10-08T05:04:28;7.30;;;2.33;;
69161;SDS011;56269;51.738;21.652;2023-10-08T05:07:11;6.57;;;2.15;;
69161;SDS011;56269;51.738;21.652;2023-10-08T05:09:47;7.20;;;2.10;;
69161;SDS011;56269;51.738;21.652;2023-10-08T05:12:28;6.35;;;1.65;;
69161;SDS011;56269;51.738;21.652;2023-10-08T05:15:11;4.30;;;1.70;;
69161;SDS011;56269;51.738;21.652;2023-10-08T05:17:41;6.00;;;1.83;;
69161;SDS011;56269;51.738;21.652;2023-10-08T05:20:17;7.85;;;2.38;;
69161;SDS011;56269;51.738;21.652;2023-10-08T05:23:05;5.22;;;1.95;;
69161;SDS011;56269;51.738;21.652;2023-10-08T05:25:47;6.25;;;2.33;;
69161;SDS011;56269;51.738;21.652;2023-10-08T05:28:39;5.93;;;1.70;;
69161;SDS011;56269;51.738;21.652;2023-10-08T05:31:24;3.50;;;1.27;;
69161;SDS011;56269;51.738;21.652;2023-10-08T05:34:09;9.00;;;2.80;;
69161;SDS011;56269;51.738;21.652;2023-10-08T05:36:58;3.17;;;1.10;;
69161;SDS011;56269;51.738;21.652;2023-10-08T05:39:24;5.65;;;1.90;;
69161;SDS011;56269;51.738;21.652;2023-10-08T05:41:51;3.10;;;0.93;;
69161;SDS011;56269;51.738;21.652;2023-10-08T05:44:18;3.63;;;1.23;;
69161;SDS011;56269;51.738;21.652;2023-10-08T05:46:44;5.75;;;1.92;;
69161;SDS011;56269;51.738;21.652;2023-10-08T05:49:19;4.00;;;1.45;;
69161;SDS011;56269;51.738;21.652;2023-10-08T05:52:14;9.68;;;2.35;;
69161;SDS011;56269;51.738;21.652;2023-10-08T05:54:51;4.10;;;1.67;;
69161;SDS011;56269;51.738;21.652;2023-10-08T05:57:40;6.00;;;1.52;;
69161;SDS011;56269;51.738;21.652;2023-10-08T06:00:11;5.97;;;1.65;;
69161;SDS011;56269;51.738;21.652;2023-10-08T06:02:42;5.88;;;1.60;;
69161;SDS011;56269;51.738;21.652;2023-10-08T06:05:12;4.53;;;1.63;;
69161;SDS011;56269;51.738;21.652;2023-10-08T06:10:22;7.22;;;1.50;;
69161;SDS011;56269;51.738;21.652;2023-10-08T06:15:47;5.03;;;1.30;;
69161;SDS011;56269;51.738;21.652;2023-10-08T06:18:23;3.40;;;0.98;;
69161;SDS011;56269;51.738;21.652;2023-10-08T06:21:03;1.60;;;0.70;;
69161;SDS011;56269;51.738;21.652;2023-10-08T06:23:39;3.38;;;0.75;;
69161;SDS011;56269;51.738;21.652;2023-10-08T06:26:07;2.90;;;1.00;;
69161;SDS011;56269;51.738;21.652;2023-10-08T06:28:37;1.95;;;0.73;;
69161;SDS011;56269;51.738;21.652;2023-10-08T06:31:05;2.35;;;0.90;;
69161;SDS011;56269;51.738;21.652;2023-10-08T06:33:42;2.30;;;0.80;;
69161;SDS011;56269;51.738;21.652;2023-10-08T06:36:10;2.40;;;0.85;;
69161;SDS011;56269;51.738;21.652;2023-10-08T06:38:37;2.72;;;1.02;;
69161;SDS011;56269;51.738;21.652;2023-10-08T06:41:04;3.95;;;0.88;;
69161;SDS011;56269;51.738;21.652;2023-10-08T06:43:36;2.50;;;0.80;;
69161;SDS011;56269;51.738;21.652;2023-10-08T06:46:03;2.40;;;0.70;;
69161;SDS011;56269;51.738;21.652;2023-10-08T06:48:33;3.08;;;0.73;;
69161;SDS011;56269;51.738;21.652;2023-10-08T06:51:00;1.45;;;0.60;;
69161;SDS011;56269;51.738;21.652;2023-10-08T06:53:39;1.20;;;0.50;;
69161;SDS011;56269;51.738;21.652;2023-10-08T06:56:10;1.80;;;0.70;;
69161;SDS011;56269;51.738;21.652;2023-10-08T06:58:38;1.13;;;0.50;;
69161;SDS011;56269;51.738;21.652;2023-10-08T07:01:07;1.50;;;0.65;;
69161;SDS011;56269;51.738;21.652;2023-10-08T07:03:38;1.10;;;0.60;;
69161;SDS011;56269;51.738;21.652;2023-10-08T07:06:05;3.20;;;0.68;;
69161;SDS011;56269;51.738;21.652;2023-10-08T07:08:51;1.77;;;0.60;;
69161;SDS011;56269;51.738;21.652;2023-10-08T07:11:21;0.97;;;0.50;;
69161;SDS011;56269;51.738;21.652;2023-10-08T07:13:48;1.20;;;0.60;;
69161;SDS011;56269;51.738;21.652;2023-10-08T07:16:15;0.90;;;0.50;;
69161;SDS011;56269;51.738;21.652;2023-10-08T07:18:43;2.42;;;0.90;;
69161;SDS011;56269;51.738;21.652;2023-10-08T07:21:20;0.98;;;0.50;;
69161;SDS011;56269;51.738;21.652;2023-10-08T07:23:55;4.33;;;1.10;;
69161;SDS011;56269;51.738;21.652;2023-10-08T07:26:25;2.45;;;0.80;;
69161;SDS011;56269;51.738;21.652;2023-10-08T07:28:52;1.80;;;0.80;;
69161;SDS011;56269;51.738;21.652;2023-10-08T07:31:22;1.13;;;0.65;;
69161;SDS011;56269;51.738;21.652;2023-10-08T07:33:50;2.03;;;0.60;;
69161;SDS011;56269;51.738;21.652;2023-10-08T07:36:22;1.97;;;0.83;;
69161;SDS011;56269;51.738;21.652;2023-10-08T07:38:50;1.60;;;0.70;;
69161;SDS011;56269;51.738;21.652;2023-10-08T07:41:17;0.95;;;0.60;;
69161;SDS011;56269;51.738;21.652;2023-10-08T07:43:49;2.28;;;0.88;;
69161;SDS011;56269;51.738;21.652;2023-10-08T07:46:23;2.13;;;0.57;;
69161;SDS011;56269;51.738;21.652;2023-10-08T07:48:52;1.33;;;0.53;;
69161;SDS011;56269;51.738;21.652;2023-10-08T07:51:19;1.58;;;0.57;;
69161;SDS011;56269;51.738;21.652;2023-10-08T07:53:49;1.73;;;0.70;;
69161;SDS011;56269;51.738;21.652;2023-10-08T07:56:24;1.13;;;0.60;;
69161;SDS011;56269;51.738;21.652;2023-10-08T07:58:51;0.90;;;0.50;;
69161;SDS011;56269;51.738;21.652;2023-10-08T08:01:23;1.30;;;0.60;;
69161;SDS011;56269;51.738;21.652;2023-10-08T08:03:53;1.45;;;0.50;;
69161;SDS011;56269;51.738;21.652;2023-10-08T08:06:19;0.90;;;0.50;;
69161;SDS011;56269;51.738;21.652;2023-10-08T08:08:45;1.20;;;0.60;;
69161;SDS011;56269;51.738;21.652;2023-10-08T08:11:11;1.40;;;0.60;;
69161;SDS011;56269;51.738;21.652;2023-10-08T08:13:38;1.83;;;0.60;;
69161;SDS011;56269;51.738;21.652;2023-10-08T08:16:09;1.48;;;0.60;;
69161;SDS011;56269;51.738;21.652;2023-10-08T08:18:47;1.05;;;0.50;;
69161;SDS011;56269;51.738;21.652;2023-10-08T08:21:24;2.25;;;0.60;;
69161;SDS011;56269;51.738;21.652;2023-10-08T08:23:51;4.40;;;0.80;;
69161;SDS011;56269;51.738;21.652;2023-10-08T08:26:19;0.97;;;0.57;;
69161;SDS011;56269;51.738;21.652;2023-10-08T08:29:01;3.10;;;0.60;;
69161;SDS011;56269;51.738;21.652;2023-10-08T08:31:28;2.88;;;0.90;;
69161;SDS011;56269;51.738;21.652;2023-10-08T08:34:02;3.58;;;0.98;;
69161;SDS011;56269;51.738;21.652;2023-10-08T08:36:33;2.88;;;0.93;;
69161;SDS011;56269;51.738;21.652;2023-10-08T08:39:03;1.67;;;0.60;;
69161;SDS011;56269;51.738;21.652;2023-10-08T08:41:30;1.85;;;0.68;;
69161;SDS011;56269;51.738;21.652;2023-10-08T08:43:56;1.58;;;0.70;;
69161;SDS011;56269;51.738;21.652;2023-10-08T08:46:30;1.00;;;0.60;;
69161;SDS011;56269;51.738;21.652;2023-10-08T08:49:05;3.05;;;0.90;;
69161;SDS011;56269;51.738;21.652;2023-10-08T08:51:37;1.33;;;0.60;;
69161;SDS011;56269;51.738;21.652;2023-10-08T08:54:04;1.23;;;0.60;;
69161;SDS011;56269;51.738;21.652;2023-10-08T08:56:40;2.10;;;0.80;;
69161;SDS011;56269;51.738;21.652;2023-10-08T08:59:09;3.67;;;0.80;;
69161;SDS011;56269;51.738;21.652;2023-10-08T09:01:40;1.63;;;0.57;;
69161;SDS011;56269;51.738;21.652;2023-10-08T09:04:08;1.83;;;0.70;;
69161;SDS011;56269;51.738;21.652;2023-10-08T09:06:34;1.50;;;0.57;;
69161;SDS011;56269;51.738;21.652;2023-10-08T09:09:05;1.30;;;0.60;;
69161;SDS011;56269;51.738;21.652;2023-10-08T09:11:51;2.38;;;0.60;;
69161;SDS011;56269;51.738;21.652;2023-10-08T09:14:22;1.75;;;0.90;;
69161;SDS011;56269;51.738;21.652;2023-10-08T09:16:53;2.97;;;0.73;;
69161;SDS011;56269;51.738;21.652;2023-10-08T09:19:26;1.40;;;0.55;;
69161;SDS011;56269;51.738;21.652;2023-10-08T09:22:08;1.70;;;0.70;;
69161;SDS011;56269;51.738;21.652;2023-10-08T09:24:41;2.45;;;0.85;;
69161;SDS011;56269;51.738;21.652;2023-10-08T09:27:11;1.77;;;0.80;;
69161;SDS011;56269;51.738;21.652;2023-10-08T09:29:41;1.57;;;0.70;;
69161;SDS011;56269;51.738;21.652;2023-10-08T09:32:08;1.42;;;0.70;;
69161;SDS011;56269;51.738;21.652;2023-10-08T09:34:36;1.80;;;0.70;;
69161;SDS011;56269;51.738;21.652;2023-10-08T09:37:02;1.38;;;0.60;;
69161;SDS011;56269;51.738;21.652;2023-10-08T09:39:29;1.45;;;0.60;;
69161;SDS011;56269;51.738;21.652;2023-10-08T09:42:02;2.20;;;0.70;;
69161;SDS011;56269;51.738;21.652;2023-10-08T09:44:32;1.90;;;0.70;;
69161;SDS011;56269;51.738;21.652;2023-10-08T09:47:08;2.03;;;0.75;;
69161;SDS011;56269;51.738;21.652;2023-10-08T09:49:42;0.60;;;0.40;;
69161;SDS011;56269;51.738;21.652;2023-10-08T09:52:18;1.25;;;0.60;;
69161;SDS011;56269;51.738;21.652;2023-10-08T09:57:19;2.45;;;0.80;;
69161;SDS011;56269;51.738;21.652;2023-10-08T09:59:49;0.95;;;0.50;;
69161;SDS011;56269;51.738;21.652;2023-10-08T10:02:16;1.05;;;0.50;;
69161;SDS011;56269;51.738;21.652;2023-10-08T10:04:44;0.65;;;0.45;;
69161;SDS011;56269;51.738;21.652;2023-10-08T10:07:11;2.10;;;0.63;;
69161;SDS011;56269;51.738;21.652;2023-10-08T10:09:39;1.45;;;0.65;;
69161;SDS011;56269;51.738;21.652;2023-10-08T10:12:12;2.35;;;0.82;;
69161;SDS011;56269;51.738;21.652;2023-10-08T10:14:47;1.67;;;0.60;;
69161;SDS011;56269;51.738;21.652;2023-10-08T10:17:14;1.20;;;0.57;;
69161;SDS011;56269;51.738;21.652;2023-10-08T10:19:50;2.87;;;0.80;;
69161;SDS011;56269;51.738;21.652;2023-10-08T10:22:29;1.63;;;0.60;;
69161;SDS011;56269;51.738;21.652;2023-10-08T10:24:58;3.40;;;0.98;;
69161;SDS011;56269;51.738;21.652;2023-10-08T10:27:29;1.45;;;0.60;;
69161;SDS011;56269;51.738;21.652;2023-10-08T10:30:02;1.00;;;0.50;;
69161;SDS011;56269;51.738;21.652;2023-10-08T10:32:34;2.90;;;0.70;;
69161;SDS011;56269;51.738;21.652;2023-10-08T10:35:02;2.03;;;0.80;;
69161;SDS011;56269;51.738;21.652;2023-10-08T10:37:34;1.55;;;0.77;;
69161;SDS011;56269;51.738;21.652;2023-10-08T10:40:32;0.93;;;0.50;;
69161;SDS011;56269;51.738;21.652;2023-10-08T10:43:05;0.90;;;0.50;;
69161;SDS011;56269;51.738;21.652;2023-10-08T10:45:41;1.77;;;0.70;;
69161;SDS011;56269;51.738;21.652;2023-10-08T10:48:09;0.82;;;0.52;;
69161;SDS011;56269;51.738;21.652;2023-10-08T10:50:48;3.88;;;1.10;;
69161;SDS011;56269;51.738;21.652;2023-10-08T10:53:42;1.00;;;0.60;;
69161;SDS011;56269;51.738;21.652;2023-10-08T10:56:31;1.48;;;0.60;;
69161;SDS011;56269;51.738;21.652;2023-10-08T10:59:05;4.17;;;0.93;;
69161;SDS011;56269;51.738;21.652;2023-10-08T11:01:48;1.77;;;0.70;;
69161;SDS011;56269;51.738;21.652;2023-10-08T11:04:21;1.70;;;0.50;;
69161;SDS011;56269;51.738;21.652;2023-10-08T11:06:54;3.20;;;0.85;;
69161;SDS011;56269;51.738;21.652;2023-10-08T11:09:26;1.02;;;0.60;;
69161;SDS011;56269;51.738;21.652;2023-10-08T11:12:04;1.27;;;0.50;;
69161;SDS011;56269;51.738;21.652;2023-10-08T11:14:38;1.60;;;0.70;;
69161;SDS011;56269;51.738;21.652;2023-10-08T11:17:18;1.65;;;0.70;;
69161;SDS011;56269;51.738;21.652;2023-10-08T11:19:51;1.60;;;0.70;;
69161;SDS011;56269;51.738;21.652;2023-10-08T11:22:18;1.75;;;0.77;;
69161;SDS011;56269;51.738;21.652;2023-10-08T11:24:48;1.40;;;0.60;;
69161;SDS011;56269;51.738;21.652;2023-10-08T11:27:19;1.20;;;0.60;;
69161;SDS011;56269;51.738;21.652;2023-10-08T11:29:59;1.13;;;0.60;;
69161;SDS011;56269;51.738;21.652;2023-10-08T11:32:26;1.67;;;0.63;;
69161;SDS011;56269;51.738;21.652;2023-10-08T11:34:55;1.60;;;0.50;;
69161;SDS011;56269;51.738;21.652;2023-10-08T11:37:29;2.07;;;0.80;;
69161;SDS011;56269;51.738;21.652;2023-10-08T11:39:59;1.50;;;0.73;;
69161;SDS011;56269;51.738;21.652;2023-10-08T11:42:34;1.17;;;0.60;;
69161;SDS011;56269;51.738;21.652;2023-10-08T11:45:02;1.90;;;0.70;;
69161;SDS011;56269;51.738;21.652;2023-10-08T11:47:44;1.08;;;0.52;;
69161;SDS011;56269;51.738;21.652;2023-10-08T11:50:11;2.20;;;0.70;;
69161;SDS011;56269;51.738;21.652;2023-10-08T11:52:43;2.58;;;0.80;;
69161;SDS011;56269;51.738;21.652;2023-10-08T11:55:09;1.83;;;0.70;;
69161;SDS011;56269;51.738;21.652;2023-10-08T11:57:36;1.75;;;0.60;;
69161;SDS011;56269;51.738;21.652;2023-10-08T12:00:13;1.85;;;0.70;;
69161;SDS011;56269;51.738;21.652;2023-10-08T12:02:46;2.33;;;0.90;;
69161;SDS011;56269;51.738;21.652;2023-10-08T12:05:13;2.00;;;0.60;;
69161;SDS011;56269;51.738;21.652;2023-10-08T12:07:51;1.42;;;0.70;;
69161;SDS011;56269;51.738;21.652;2023-10-08T12:10:21;1.80;;;0.80;;
69161;SDS011;56269;51.738;21.652;2023-10-08T12:12:51;1.00;;;0.50;;
69161;SDS011;56269;51.738;21.652;2023-10-08T12:15:21;2.27;;;0.70;;
69161;SDS011;56269;51.738;21.652;2023-10-08T12:17:52;0.95;;;0.50;;
69161;SDS011;56269;51.738;21.652;2023-10-08T12:20:34;2.08;;;0.60;;
69161;SDS011;56269;51.738;21.652;2023-10-08T12:23:03;0.70;;;0.47;;
69161;SDS011;56269;51.738;21.652;2023-10-08T12:25:30;1.30;;;0.60;;
69161;SDS011;56269;51.738;21.652;2023-10-08T12:28:01;1.70;;;0.73;;
69161;SDS011;56269;51.738;21.652;2023-10-08T12:30:33;2.90;;;0.73;;
69161;SDS011;56269;51.738;21.652;2023-10-08T12:33:07;1.63;;;0.60;;
69161;SDS011;56269;51.738;21.652;2023-10-08T12:35:39;1.80;;;0.65;;
69161;SDS011;56269;51.738;21.652;2023-10-08T12:38:06;1.67;;;0.75;;
69161;SDS011;56269;51.738;21.652;2023-10-08T12:40:32;0.93;;;0.50;;
69161;SDS011;56269;51.738;21.652;2023-10-08T12:43:14;2.33;;;0.80;;
69161;SDS011;56269;51.738;21.652;2023-10-08T12:45:51;1.83;;;0.60;;
69161;SDS011;56269;51.738;21.652;2023-10-08T12:48:19;2.25;;;0.68;;
69161;SDS011;56269;51.738;21.652;2023-10-08T12:50:46;3.17;;;0.73;;
69161;SDS011;56269;51.738;21.652;2023-10-08T12:53:28;0.53;;;0.40;;
69161;SDS011;56269;51.738;21.652;2023-10-08T12:56:04;1.30;;;0.60;;
69161;SDS011;56269;51.738;21.652;2023-10-08T12:58:47;1.25;;;0.50;;
69161;SDS011;56269;51.738;21.652;2023-10-08T13:01:14;1.25;;;0.60;;
69161;SDS011;56269;51.738;21.652;2023-10-08T13:03:43;2.15;;;0.80;;
69161;SDS011;56269;51.738;21.652;2023-10-08T13:06:14;2.47;;;0.93;;
69161;SDS011;56269;51.738;21.652;2023-10-08T13:08:57;2.42;;;0.90;;
69161;SDS011;56269;51.738;21.652;2023-10-08T13:11:25;1.88;;;0.70;;
69161;SDS011;56269;51.738;21.652;2023-10-08T13:13:55;0.80;;;0.50;;
69161;SDS011;56269;51.738;21.652;2023-10-08T13:16:23;1.85;;;0.80;;
69161;SDS011;56269;51.738;21.652;2023-10-08T13:18:51;1.47;;;0.67;;
69161;SDS011;56269;51.738;21.652;2023-10-08T13:21:22;1.63;;;0.68;;
69161;SDS011;56269;51.738;21.652;2023-10-08T13:23:51;1.33;;;0.70;;
69161;SDS011;56269;51.738;21.652;2023-10-08T13:26:18;1.83;;;0.65;;
69161;SDS011;56269;51.738;21.652;2023-10-08T13:28:49;2.35;;;0.80;;
69161;SDS011;56269;51.738;21.652;2023-10-08T13:31:16;3.27;;;1.00;;
69161;SDS011;56269;51.738;21.652;2023-10-08T13:33:45;1.75;;;0.80;;
69161;SDS011;56269;51.738;21.652;2023-10-08T13:36:15;1.13;;;0.52;;
69161;SDS011;56269;51.738;21.652;2023-10-08T13:38:43;1.88;;;0.60;;
69161;SDS011;56269;51.738;21.652;2023-10-08T13:41:12;4.88;;;0.60;;
69161;SDS011;56269;51.738;21.652;2023-10-08T13:43:43;1.60;;;0.70;;
69161;SDS011;56269;51.738;21.652;2023-10-08T13:46:15;1.45;;;0.60;;
69161;SDS011;56269;51.738;21.652;2023-10-08T13:48:47;2.08;;;0.60;;
69161;SDS011;56269;51.738;21.652;2023-10-08T13:51:15;1.02;;;0.60;;
69161;SDS011;56269;51.738;21.652;2023-10-08T13:53:55;1.20;;;0.60;;
69161;SDS011;56269;51.738;21.652;2023-10-08T13:56:26;1.53;;;0.67;;
69161;SDS011;56269;51.738;21.652;2023-10-08T13:58:57;1.25;;;0.60;;
69161;SDS011;56269;51.738;21.652;2023-10-08T14:01:41;2.33;;;0.90;;
69161;SDS011;56269;51.738;21.652;2023-10-08T14:04:17;6.32;;;1.10;;
69161;SDS011;56269;51.738;21.652;2023-10-08T14:06:52;2.00;;;0.65;;
69161;SDS011;56269;51.738;21.652;2023-10-08T14:09:21;1.23;;;0.63;;
69161;SDS011;56269;51.738;21.652;2023-10-08T14:11:57;2.47;;;1.00;;
69161;SDS011;56269;51.738;21.652;2023-10-08T14:14:25;1.00;;;0.60;;
69161;SDS011;56269;51.738;21.652;2023-10-08T14:16:56;1.33;;;0.57;;
69161;SDS011;56269;51.738;21.652;2023-10-08T14:19:29;3.08;;;1.15;;
69161;SDS011;56269;51.738;21.652;2023-10-08T14:22:08;3.67;;;0.70;;
69161;SDS011;56269;51.738;21.652;2023-10-08T14:24:40;2.35;;;0.70;;
69161;SDS011;56269;51.738;21.652;2023-10-08T14:27:06;1.48;;;0.60;;
69161;SDS011;56269;51.738;21.652;2023-10-08T14:29:37;1.10;;;0.50;;
69161;SDS011;56269;51.738;21.652;2023-10-08T14:32:12;3.42;;;0.80;;
69161;SDS011;56269;51.738;21.652;2023-10-08T14:34:41;2.73;;;1.00;;
69161;SDS011;56269;51.738;21.652;2023-10-08T14:37:13;2.95;;;0.70;;
69161;SDS011;56269;51.738;21.652;2023-10-08T14:39:59;1.73;;;0.57;;
69161;SDS011;56269;51.738;21.652;2023-10-08T14:42:44;1.23;;;0.60;;
69161;SDS011;56269;51.738;21.652;2023-10-08T14:45:28;1.35;;;0.63;;
69161;SDS011;56269;51.738;21.652;2023-10-08T14:48:01;1.97;;;0.73;;
69161;SDS011;56269;51.738;21.652;2023-10-08T14:50:28;2.28;;;0.80;;
69161;SDS011;56269;51.738;21.652;2023-10-08T14:52:58;2.03;;;0.70;;
69161;SDS011;56269;51.738;21.652;2023-10-08T14:55:32;5.47;;;1.20;;
69161;SDS011;56269;51.738;21.652;2023-10-08T14:58:02;1.67;;;0.60;;
69161;SDS011;56269;51.738;21.652;2023-10-08T15:00:34;1.50;;;0.60;;
69161;SDS011;56269;51.738;21.652;2023-10-08T15:03:04;1.90;;;0.70;;
69161;SDS011;56269;51.738;21.652;2023-10-08T15:05:31;1.80;;;0.82;;
69161;SDS011;56269;51.738;21.652;2023-10-08T15:07:58;2.25;;;0.70;;
69161;SDS011;56269;51.738;21.652;2023-10-08T15:10:25;3.50;;;1.05;;
69161;SDS011;56269;51.738;21.652;2023-10-08T15:12:51;1.00;;;0.57;;